NCAR-RAP Real-Time Weather Data

Output produced by METARs form (23 February 2020  02:30 UTC)
found at http://weather.rap.ucar.edu/surface/
 
KLOU 230153Z 17006KT 10SM CLR 06/M11 A3029 RMK AO2 SLP261 T00561111
KLOU 230053Z 21003KT 10SM CLR 07/M12 A3029 RMK AO2 SLP261 T00671122
KLOU 222353Z 20006KT 10SM CLR 07/M11 A3028 RMK AO2 SLP258 T00671111 10111 20067 56014
KLOU 222253Z 23005KT 10SM CLR 09/M11 A3029 RMK AO2 SLP259 T00941111
KLOU 222153Z 22008KT 10SM CLR 11/M12 A3031 RMK AO2 SLP266 T01061122
KLOU 222053Z 20009KT 10SM CLR 11/M12 A3032 RMK AO2 SLP272 T01061122 56030
KLOU 221953Z 21011G15KT 10SM CLR 11/M11 A3035 RMK AO2 SLP281 T01061111
KLOU 221853Z 21009KT 10SM CLR 09/M11 A3038 RMK AO2 SLP291 T00941106
KLOU 221753Z 21010KT 10SM CLR 07/M12 A3041 RMK AO2 SLP303 T00721117 10072 21061 58023
KLOU 221653Z 19007KT 10SM CLR 06/M09 A3045 RMK AO2 SLP316 T00561089
KLOU 221553Z 20008KT 10SM CLR 04/M08 A3046 RMK AO2 SLP318 T00391083
KLOU 221453Z 21005KT 10SM CLR 01/M08 A3048 RMK AO2 SLP328 T00111078 53003
KLOU 221353Z 17005KT 10SM CLR M02/M08 A3049 RMK AO2 SLP329 T10221083
KLOU 221253Z 00000KT 10SM CLR M06/M10 A3048 RMK AO2 SLP326 T10611100
KLOU 221153Z 00000KT 10SM CLR M06/M09 A3048 RMK AO2 SLP326 T10561089 11022 21061 53010
KLOU 221053Z AUTO 00000KT 10SM CLR M06/M09 A3047 RMK AO2 SLP322 T10561094
KLOU 220953Z AUTO 00000KT 10SM CLR M05/M10 A3044 RMK AO2 SLP315 T10501100
KLOU 220853Z AUTO 00000KT 10SM CLR M05/M10 A3045 RMK AO2 SLP316 T10501100 56012
KLOU 220753Z AUTO 19005KT 10SM CLR M06/M11 A3046 RMK AO2 SLP320 T10561106
KLOU 220653Z AUTO 16003KT 10SM CLR M03/M10 A3047 RMK AO2 SLP322 T10281100
KLOU 220553Z AUTO 16003KT 10SM CLR M02/M10 A3048 RMK AO2 SLP328 T10221100 10028 21033 58014
KLOU 220453Z AUTO 19004KT 10SM CLR M03/M11 A3050 RMK AO2 SLP334 T10281106 400441067
KLOU 220353Z 18005KT 10SM CLR M02/M11 A3051 RMK AO2 SLP338 T10221106
KLOU 220253Z 15003KT 10SM CLR M01/M11 A3052 RMK AO2 SLP342 T10061106 56008
KLOU 220153Z 17003KT 10SM CLR 00/M11 A3053 RMK AO2 SLP345 T00001111
KLOU 220053Z 00000KT 10SM CLR 01/M13 A3054 RMK AO2 SLP347 T00111128
KLOU 212353Z 22003KT 10SM CLR 03/M13 A3055 RMK AO2 SLP351 T00281128 10044 20011 58008
KLOU 212253Z 20004KT 10SM CLR 03/M13 A3056 RMK AO2 SLP353 T00331133
KLOU 212153Z 30004KT 10SM CLR 04/M14 A3057 RMK AO2 SLP358 T00391139
KLOU 212053Z 00000KT 10SM CLR 03/M15 A3057 RMK AO2 SLP359 T00331150 56033
KLOU 211953Z 28004KT 10SM CLR 03/M15 A3060 RMK AO2 SLP368 T00281150
KLOU 211853Z 00000KT 10SM CLR 02/M11 A3063 RMK AO2 SLP379 T00221111
KLOU 211753Z VRB04KT 10SM CLR 01/M11 A3067 RMK AO2 SLP393 T00111111 10011 21067 58008
KLOU 211653Z 13003KT 10SM CLR M01/M11 A3069 RMK AO2 SLP400 T10061111
KLOU 211553Z 29005KT 10SM CLR M02/M11 A3070 RMK AO2 SLP401 T10171106
KLOU 211453Z 00000KT 10SM CLR M03/M11 A3070 RMK AO2 SLP403 T10281106 53015
KLOU 211353Z 34004KT 10SM CLR M04/M09 A3069 RMK AO2 SLP399 T10441094
KLOU 211253Z 00000KT 10SM CLR M06/M11 A3066 RMK AO2 SLP390 T10611106
KLOU 211153Z 35003KT 10SM CLR M07/M11 A3066 RMK AO2 SLP388 T10671111 11044 21067 53011
KLOU 211053Z AUTO 36005KT 10SM CLR M06/M11 A3064 RMK AO2 SLP381 T10611111
KLOU 210953Z AUTO 34005KT 10SM CLR M06/M11 A3062 RMK AO2 SLP376 T10611111
KLOU 210853Z AUTO 34003KT 10SM CLR M06/M12 A3062 RMK AO2 SLP376 T10561117 58004
KLOU 210753Z AUTO 00000KT 10SM CLR M06/M11 A3063 RMK AO2 SLP378 T10561111
KLOU 210653Z AUTO 35003KT 10SM CLR M05/M12 A3064 RMK AO2 SLP379 T10501122
KLOU 210553Z AUTO 02004KT 10SM CLR M04/M12 A3063 RMK AO2 SLP379 T10441122 11006 21044 51007
KLOU 210453Z AUTO 36006KT 10SM CLR M04/M12 A3063 RMK AO2 SLP378 T10391117 400501039
KLOU 210353Z AUTO 01006G16KT 10SM CLR M03/M12 A3062 RMK AO2 SLP375 T10331122
KLOU 210253Z 35008KT 10SM CLR M03/M12 A3061 RMK AO2 SLP372 T10281117 51020